Time;durP1;ratioP1;P1;durP2;ratioP2;P2;SDS_P1;SDS_P2;PMS_P1;PMS_P2;Temp;Humidity;BMP_temperature;BMP_pressure;BME280_temperature;BME280_humidity;BME280_pressure;Samples;Min_cycle;Max_cycle;Signal;HPM_P1;HPM_P2
2022/01/26 00:07:37;;;;;;;12.80;8.33;;;;;;;-3.30;49.30;100478.56;5094722;28;20943;-66
2022/01/26 00:10:04;;;;;;;19.97;9.47;;;;;;;-3.31;49.06;100476.88;5094062;28;20809;-66
2022/01/26 00:12:31;;;;;;;10.97;8.60;;;;;;;-3.31;49.08;100474.28;5094248;28;20480;-66
2022/01/26 00:14:58;;;;;;;14.27;8.63;;;;;;;-3.30;49.11;100465.56;5094177;28;20441;-66
2022/01/26 00:17:26;;;;;;;11.47;8.07;;;;;;;-3.30;48.88;100470.75;5094448;28;20487;-67
2022/01/26 00:19:58;;;;;;;10.50;8.57;;;;;;;-3.20;48.38;100461.53;5094695;28;20433;-67
2022/01/26 00:22:42;;;;;;;13.00;8.70;;;;;;;-3.15;48.00;100468.13;5094902;28;20520;-67
2022/01/26 00:25:24;;;;;;;10.57;9.50;;;;;;;-3.15;48.26;100464.72;5093922;28;20936;-67
2022/01/26 00:27:54;;;;;;;10.07;7.83;;;;;;;-3.03;47.63;100466.63;5094269;28;20506;-67
2022/01/26 00:38:31;;;;;;;16.30;8.63;;;;;;;-2.97;46.54;100461.06;5094314;28;20452;-66
2022/01/26 00:38:46;;;;;;;9.70;8.80;;;;;;;-2.91;46.76;100463.31;5092725;28;20495;-66
2022/01/26 00:41:17;;;;;;;9.57;8.37;;;;;;;-2.94;46.92;100456.53;5093577;28;20441;-67
2022/01/26 00:43:49;;;;;;;8.13;7.37;;;;;;;-2.98;47.34;100456.81;5094282;28;20490;-66
2022/01/26 00:46:16;;;;;;;8.10;7.07;;;;;;;-3.04;48.31;100457.13;5093570;28;20442;-68
2022/01/26 00:48:45;;;;;;;10.33;8.10;;;;;;;-3.04;48.13;100454.53;5093332;28;20862;-65
2022/01/26 00:51:15;;;;;;;9.40;7.90;;;;;;;-3.12;47.85;100448.94;5093422;28;20425;-66
2022/01/26 00:53:45;;;;;;;8.70;7.27;;;;;;;-3.15;48.46;100438.75;5093251;28;20472;-67
2022/01/26 00:56:12;;;;;;;11.47;8.50;;;;;;;-3.27;48.77;100440.25;5093409;28;20441;-66
2022/01/26 00:58:39;;;;;;;8.70;7.87;;;;;;;-3.36;48.73;100435.59;5093558;28;21016;-66
2022/01/26 01:01:06;;;;;;;8.77;7.87;;;;;;;-3.34;49.20;100435.50;5093370;28;20442;-66
2022/01/26 01:03:38;;;;;;;10.17;8.13;;;;;;;-3.36;49.04;100429.53;5093944;28;20445;-66
2022/01/26 01:06:12;;;;;;;9.10;8.00;;;;;;;-3.31;48.81;100435.34;5093789;28;20526;-67
2022/01/26 01:08:40;;;;;;;9.07;8.13;;;;;;;-3.31;48.58;100430.13;5094053;28;20433;-66
2022/01/26 01:11:07;;;;;;;12.90;9.13;;;;;;;-3.34;48.23;100430.31;5093676;28;20448;-66
2022/01/26 01:13:36;;;;;;;11.67;9.23;;;;;;;-3.26;47.74;100426.38;5093259;28;20481;-66
2022/01/26 01:16:04;;;;;;;12.87;9.27;;;;;;;-3.22;47.96;100429.63;5094276;28;20473;-66
2022/01/26 01:18:38;;;;;;;15.63;9.93;;;;;;;-3.14;47.58;100422.22;5094470;28;20433;-66
2022/01/26 01:21:58;;;;;;;9.57;8.37;;;;;;;-3.07;46.90;100420.97;5093560;28;20432;-66
2022/01/26 01:29:41;;;;;;;14.57;10.40;;;;;;;-3.06;46.08;100404.44;5080027;28;20433;-66
2022/01/26 01:32:14;;;;;;;13.07;8.33;;;;;;;-3.11;46.31;100409.88;5093481;28;20465;-67
2022/01/26 01:34:41;;;;;;;12.93;9.10;;;;;;;-3.03;45.75;100399.88;5093114;28;20563;-66
2022/01/26 01:37:14;;;;;;;10.77;8.77;;;;;;;-2.96;45.86;100402.97;5093322;28;20440;-66
2022/01/26 01:39:41;;;;;;;8.93;8.07;;;;;;;-2.98;45.65;100399.63;5093099;28;20516;-67
2022/01/26 01:42:09;;;;;;;8.70;7.83;;;;;;;-3.16;45.75;100377.28;5092771;28;20441;-67
2022/01/26 01:44:36;;;;;;;8.67;7.87;;;;;;;-3.08;46.10;100398.47;5092652;28;20491;-66
2022/01/26 01:47:05;;;;;;;9.63;8.37;;;;;;;-3.17;46.29;100393.81;5092939;28;20429;-66
2022/01/26 01:49:32;;;;;;;10.90;7.93;;;;;;;-3.08;45.99;100414.91;5093494;28;20437;-66
2022/01/26 01:52:04;;;;;;;8.43;7.40;;;;;;;-3.06;46.06;100399.25;5092576;28;20482;-66
2022/01/26 01:54:32;;;;;;;9.40;8.03;;;;;;;-3.07;45.49;100402.78;5092959;28;20482;-66
2022/01/26 01:56:59;;;;;;;7.77;7.17;;;;;;;-3.01;45.45;100397.22;5092611;28;20429;-67
2022/01/26 01:59:28;;;;;;;8.00;7.23;;;;;;;-3.04;45.18;100390.44;5092902;28;20444;-67
2022/01/26 02:01:55;;;;;;;9.37;8.10;;;;;;;-2.95;44.84;100396.84;5092514;28;20490;-67
2022/01/26 02:04:22;;;;;;;10.83;8.23;;;;;;;-2.96;45.20;100388.22;5092640;28;20437;-67
2022/01/26 02:06:49;;;;;;;8.67;6.90;;;;;;;-2.92;44.73;100386.28;5092398;28;21018;-67
2022/01/26 02:09:16;;;;;;;7.63;6.87;;;;;;;-2.86;44.65;100388.53;5092663;28;20844;-67
2022/01/26 02:11:49;;;;;;;10.93;8.03;;;;;;;-2.92;45.15;100383.66;5092175;28;20437;-67
2022/01/26 02:14:25;;;;;;;7.67;6.80;;;;;;;-2.90;44.74;100387.03;5093391;28;20425;-67
2022/01/26 02:17:01;;;;;;;8.67;7.57;;;;;;;-2.85;44.78;100388.44;5092744;28;20436;-67
2022/01/26 02:50:14;;;;;;;7.90;7.20;;;;;;;-2.59;43.08;100360.88;5092083;28;20412;-66
2022/01/26 02:52:52;;;;;;;9.30;7.53;;;;;;;-2.45;42.63;100355.69;5091706;28;20987;-66
2022/01/26 02:55:34;;;;;;;9.20;8.10;;;;;;;-2.45;43.07;100358.28;5091806;28;20507;-66
2022/01/26 03:00:56;;;;;;;8.90;7.30;;;;;;;-2.34;43.33;100346.28;5091984;28;20405;-66
2022/01/26 03:03:27;;;;;;;8.37;7.47;;;;;;;-2.35;43.51;100355.03;5091836;28;20976;-66
2022/01/26 03:05:58;;;;;;;14.87;7.77;;;;;;;-2.41;43.61;100355.38;5091690;28;20444;-66
2022/01/26 03:08:31;;;;;;;10.20;8.40;;;;;;;-2.38;43.91;100349.16;5092219;28;20433;-66
2022/01/26 03:11:06;;;;;;;9.83;8.37;;;;;;;-2.31;44.18;100345.25;5092056;28;20785;-67
2022/01/26 03:13:34;;;;;;;10.13;7.43;;;;;;;-2.16;44.09;100339.13;5091515;28;20555;-66
2022/01/26 03:16:07;;;;;;;11.23;8.37;;;;;;;-2.17;43.77;100337.44;5091436;28;20438;-66
2022/01/26 03:21:16;;;;;;;8.73;7.83;;;;;;;-2.14;44.04;100332.88;5091285;28;20437;-68
2022/01/26 03:29:25;;;;;;;8.43;7.60;;;;;;;-2.18;43.92;100333.16;5095597;28;20780;-66
2022/01/26 03:34:39;;;;;;;7.63;7.03;;;;;;;-2.15;44.22;100327.78;5085756;28;20496;-66
2022/01/26 03:37:07;;;;;;;14.23;8.30;;;;;;;-2.17;43.87;100319.25;5095793;28;20505;-66
2022/01/26 03:39:41;;;;;;;8.37;7.57;;;;;;;-2.21;43.42;100325.56;5095205;28;20786;-67
2022/01/26 03:42:13;;;;;;;9.07;7.43;;;;;;;-2.24;43.53;100329.16;5096088;28;20436;-66
2022/01/26 03:44:41;;;;;;;7.90;6.87;;;;;;;-2.36;44.43;100327.34;5095708;28;20427;-66
2022/01/26 03:47:08;;;;;;;8.47;7.63;;;;;;;-2.37;44.45;100324.84;5094790;28;20445;-67
2022/01/26 03:49:35;;;;;;;7.70;7.00;;;;;;;-2.31;44.64;100325.28;5095304;28;20433;-67
2022/01/26 03:52:02;;;;;;;12.13;8.43;;;;;;;-2.44;45.38;100320.94;5094937;28;20439;-67
2022/01/26 03:54:29;;;;;;;8.67;7.90;;;;;;;-2.35;45.67;100312.56;5095043;28;20530;-67
2022/01/26 03:56:56;;;;;;;13.80;8.53;;;;;;;-2.35;45.78;100309.97;5093891;28;20910;-67
2022/01/26 03:59:24;;;;;;;13.77;7.83;;;;;;;-2.21;46.10;100313.38;5095203;28;20433;-68
2022/01/26 04:01:51;;;;;;;10.33;8.80;;;;;;;-2.22;46.46;100318.66;5094598;28;20858;-68
2022/01/26 04:04:18;;;;;;;9.90;8.90;;;;;;;-2.28;46.29;100329.47;5095201;28;20891;-67
2022/01/26 04:06:45;;;;;;;8.47;7.20;;;;;;;-2.27;45.66;100325.94;5095295;28;20433;-67
2022/01/26 04:09:13;;;;;;;7.93;7.17;;;;;;;-2.24;45.41;100323.16;5095088;28;20441;-67
2022/01/26 04:11:42;;;;;;;8.77;7.87;;;;;;;-2.20;45.54;100322.03;5094746;28;20502;-66
2022/01/26 04:14:14;;;;;;;11.27;8.13;;;;;;;-2.21;44.52;100325.56;5094214;28;20480;-67
2022/01/26 04:16:44;;;;;;;12.33;7.67;;;;;;;-2.34;44.12;100322.03;5094850;28;20805;-67
2022/01/26 04:19:11;;;;;;;9.63;8.27;;;;;;;-2.31;44.45;100324.44;5094550;28;20429;-66
2022/01/26 04:21:51;;;;;;;9.87;8.03;;;;;;;-2.31;44.11;100309.69;5094458;28;20940;-67
2022/01/26 04:24:22;;;;;;;12.20;7.53;;;;;;;-2.35;44.50;100317.75;5094812;28;20463;-66
2022/01/26 04:26:53;;;;;;;10.47;7.23;;;;;;;-2.39;44.75;100317.13;5094723;28;20429;-66
2022/01/26 04:29:25;;;;;;;9.13;7.63;;;;;;;-2.48;44.41;100312.50;5095225;28;20441;-67
2022/01/26 04:31:53;;;;;;;12.27;7.90;;;;;;;-2.52;45.30;100305.81;5094865;28;20460;-67
2022/01/26 04:34:20;;;;;;;9.87;7.40;;;;;;;-2.50;45.45;100308.28;5093988;28;20557;-67
2022/01/26 04:36:52;;;;;;;20.27;10.30;;;;;;;-2.56;46.32;100303.50;5093538;28;21042;-67
2022/01/26 04:39:23;;;;;;;12.73;8.90;;;;;;;-2.54;46.92;100291.22;5094042;28;20516;-67
2022/01/26 04:41:54;;;;;;;10.43;8.30;;;;;;;-2.43;47.16;100309.59;5094467;28;20843;-67
2022/01/26 04:44:23;;;;;;;12.40;9.80;;;;;;;-2.23;46.13;100296.19;5093926;28;21030;-68
2022/01/26 04:46:51;;;;;;;14.67;9.90;;;;;;;-2.11;45.44;100298.03;5094197;28;21064;-66
2022/01/26 04:49:19;;;;;;;14.17;9.67;;;;;;;-2.11;45.08;100306.69;5094009;28;20497;-66
2022/01/26 04:51:46;;;;;;;10.77;8.93;;;;;;;-2.06;45.00;100312.41;5093683;28;20468;-66
2022/01/26 04:54:13;;;;;;;11.00;7.70;;;;;;;-2.06;44.40;100314.19;5094067;28;20477;-66
2022/01/26 04:56:40;;;;;;;10.90;8.13;;;;;;;-1.98;43.33;100311.91;5094246;28;21013;-66
2022/01/26 04:59:07;;;;;;;7.90;6.80;;;;;;;-2.11;43.59;100305.84;5093594;28;20932;-68
2022/01/26 05:01:34;;;;;;;8.57;7.77;;;;;;;-2.16;44.00;100303.50;5093589;28;20437;-66
2022/01/26 05:04:01;;;;;;;8.30;7.13;;;;;;;-2.18;43.97;100304.53;5093938;28;20441;-66
2022/01/26 05:06:29;;;;;;;9.00;7.10;;;;;;;-2.28;44.57;100282.66;5093774;28;20487;-67
2022/01/26 05:08:55;;;;;;;8.43;7.13;;;;;;;-2.22;44.98;100292.66;5093438;28;20437;-69
2022/01/26 05:11:30;;;;;;;8.40;6.83;;;;;;;-2.18;45.14;100299.34;5093174;28;20441;-67
2022/01/26 05:13:58;;;;;;;8.57;6.37;;;;;;;-2.17;45.23;100301.03;5092920;28;20460;-67
2022/01/26 05:16:25;;;;;;;7.37;6.53;;;;;;;-2.11;44.31;100301.47;5093297;28;20437;-66
2022/01/26 05:18:53;;;;;;;9.27;7.83;;;;;;;-1.90;44.43;100305.31;5093109;28;20940;-66
2022/01/26 05:21:20;;;;;;;32.53;10.00;;;;;;;-1.95;45.81;100302.19;5093831;28;20467;-68
2022/01/26 05:23:48;;;;;;;10.03;8.37;;;;;;;-2.04;45.90;100296.72;5092764;28;20479;-67
2022/01/26 05:26:15;;;;;;;29.67;7.30;;;;;;;-1.94;45.88;100303.84;5093399;28;20479;-66
2022/01/26 05:28:42;;;;;;;13.27;8.67;;;;;;;-1.93;45.76;100304.66;5092201;28;20441;-66
2022/01/26 05:31:09;;;;;;;9.00;7.63;;;;;;;-1.99;46.02;100297.25;5092763;28;20429;-64
2022/01/26 05:33:35;;;;;;;9.77;7.37;;;;;;;-1.86;45.88;100293.78;5091981;28;20488;-66
2022/01/26 05:36:02;;;;;;;14.93;8.57;;;;;;;-1.89;46.01;100295.72;5092668;28;21001;-64
2022/01/26 05:38:29;;;;;;;10.63;8.77;;;;;;;-1.88;45.75;100297.41;5092039;28;20490;-64
2022/01/26 05:41:01;;;;;;;10.60;8.07;;;;;;;-1.98;45.32;100291.09;5092272;28;20815;-69
2022/01/26 05:43:29;;;;;;;12.40;8.97;;;;;;;-1.97;46.16;100298.81;5092654;28;20453;-64
2022/01/26 05:46:00;;;;;;;9.40;8.47;;;;;;;-1.97;45.10;100297.97;5092027;28;20433;-65
2022/01/26 05:48:27;;;;;;;13.23;8.73;;;;;;;-1.86;44.79;100296.38;5091307;28;20425;-64
2022/01/26 05:51:03;;;;;;;9.00;7.60;;;;;;;-1.89;44.80;100306.13;5091844;28;20506;-65
2022/01/26 05:53:30;;;;;;;9.47;8.47;;;;;;;-1.74;44.66;100305.16;5092350;28;20533;-64
2022/01/26 05:55:59;;;;;;;14.37;10.77;;;;;;;-1.68;44.26;100299.53;5091428;28;20979;-66
2022/01/26 05:58:26;;;;;;;19.07;12.10;;;;;;;-1.60;44.88;100292.91;5090961;28;21016;-64
2022/01/26 06:00:54;;;;;;;12.47;8.47;;;;;;;-1.42;44.29;100296.06;5091127;28;20438;-64
2022/01/26 06:03:20;;;;;;;11.37;9.10;;;;;;;-1.42;44.42;100306.50;5091389;28;20514;-65
2022/01/26 06:05:47;;;;;;;21.93;9.00;;;;;;;-1.65;44.69;100294.13;5091279;28;20956;-65
2022/01/26 06:08:14;;;;;;;9.60;8.70;;;;;;;-1.56;45.05;100303.94;5091673;28;20441;-65
2022/01/26 06:10:41;;;;;;;11.77;10.27;;;;;;;-1.66;44.83;100297.69;5089480;28;20960;-65
2022/01/26 06:13:09;;;;;;;14.97;9.80;;;;;;;-1.66;45.75;100293.31;5090897;28;20441;-65
2022/01/26 06:15:35;;;;;;;10.97;8.53;;;;;;;-1.46;45.56;100294.59;5091135;28;20490;-65
2022/01/26 06:18:03;;;;;;;11.57;9.03;;;;;;;-1.57;46.09;100297.06;5090817;28;21010;-65
2022/01/26 06:20:30;;;;;;;12.50;9.30;;;;;;;-1.39;46.19;100306.31;5092065;28;20834;-66
2022/01/26 06:22:56;;;;;;;14.33;9.87;;;;;;;-1.30;45.85;100310.91;5091357;28;20437;-66
2022/01/26 06:25:23;;;;;;;23.00;9.57;;;;;;;-1.24;45.73;100315.69;5091530;28;20498;-66
2022/01/26 06:27:52;;;;;;;13.00;9.90;;;;;;;-1.16;45.18;100321.22;5090926;28;20857;-72
2022/01/26 06:30:20;;;;;;;19.03;8.67;;;;;;;-1.05;44.61;100313.53;5090930;28;20605;-69
2022/01/26 06:32:48;;;;;;;9.57;7.50;;;;;;;-0.98;44.52;100312.19;5083428;28;21020;-68
2022/01/26 06:35:14;;;;;;;9.97;8.57;;;;;;;-0.79;44.43;100323.03;5091009;28;20476;-69
2022/01/26 06:37:41;;;;;;;8.20;7.47;;;;;;;-0.65;44.08;100320.31;5090617;28;20451;-70
2022/01/26 06:40:08;;;;;;;10.07;7.60;;;;;;;-0.35;43.21;100299.94;5091766;28;20805;-68
2022/01/26 06:42:48;;;;;;;11.77;8.13;;;;;;;-0.27;42.90;100326.31;5091163;28;20522;-69
2022/01/26 06:45:17;;;;;;;13.30;8.20;;;;;;;-0.42;42.91;100303.91;5090373;28;20950;-67
2022/01/26 06:47:59;;;;;;;11.50;9.17;;;;;;;-0.48;44.03;100310.38;5091257;28;20444;-67
2022/01/26 06:50:26;;;;;;;14.73;9.67;;;;;;;-0.38;43.94;100318.41;5089599;28;20800;-66
2022/01/26 06:52:53;;;;;;;10.40;9.37;;;;;;;-0.44;44.85;100318.84;5088221;28;20498;-68
2022/01/26 06:55:20;;;;;;;16.07;12.87;;;;;;;-0.41;44.79;100326.44;5090778;28;21003;-67
2022/01/26 06:57:47;;;;;;;12.60;10.13;;;;;;;-0.38;44.91;100331.44;5091129;28;20495;-67
2022/01/26 07:00:15;;;;;;;12.70;9.77;;;;;;;-0.34;45.11;100323.31;5093869;28;20437;-68
2022/01/26 07:02:42;;;;;;;15.47;10.13;;;;;;;-0.28;44.73;100335.09;5094420;28;20466;-68
2022/01/26 07:05:12;;;;;;;11.67;9.67;;;;;;;-0.32;44.25;100324.03;5095783;28;20448;-68
2022/01/26 07:07:40;;;;;;;29.50;16.40;;;;;;;-0.23;44.15;100328.63;5093759;28;20510;-68
2022/01/26 07:10:09;;;;;;;21.20;14.30;;;;;;;-0.17;43.98;100328.16;5093992;28;20445;-70
2022/01/26 07:12:36;;;;;;;14.73;12.93;;;;;;;-0.27;43.21;100310.66;5090475;28;20500;-69
2022/01/26 07:23:16;;;;;;;14.20;9.80;;;;;;;-0.08;45.16;100321.47;5093609;28;20437;-70
2022/01/26 07:25:42;;;;;;;14.80;9.53;;;;;;;-0.15;45.49;100320.25;5094220;28;20498;-69
2022/01/26 07:28:09;;;;;;;29.90;9.30;;;;;;;-0.16;45.98;100319.41;5094228;28;20499;-71
2022/01/26 07:30:36;;;;;;;12.03;9.10;;;;;;;-0.06;45.78;100314.34;5094389;28;20513;-69
2022/01/26 07:33:03;;;;;;;20.17;11.70;;;;;;;-0.01;46.23;100322.69;5091490;28;20448;-67
2022/01/26 07:35:29;;;;;;;9.27;8.30;;;;;;;-0.02;46.01;100321.88;5093940;28;20561;-68
2022/01/26 07:37:59;;;;;;;12.33;8.43;;;;;;;0.13;45.65;100330.38;5093134;28;20498;-67
2022/01/26 07:40:26;;;;;;;8.47;7.57;;;;;;;0.20;44.95;100331.59;5089757;28;20448;-69
2022/01/26 07:42:53;;;;;;;10.90;7.67;;;;;;;0.06;44.90;100326.53;5095189;28;20449;-69
2022/01/26 07:45:21;;;;;;;12.47;8.07;;;;;;;0.15;44.91;100322.44;5095244;28;20943;-67
2022/01/26 07:47:51;;;;;;;10.47;8.43;;;;;;;0.16;45.23;100318.88;5095518;28;20441;-69
2022/01/26 07:50:19;;;;;;;11.73;8.30;;;;;;;0.21;45.61;100324.59;5095525;28;20421;-68
2022/01/26 07:52:46;;;;;;;16.40;8.97;;;;;;;0.25;46.14;100320.81;5095062;28;20517;-69
2022/01/26 07:55:18;;;;;;;18.87;10.00;;;;;;;0.25;46.54;100320.81;5094548;28;21071;-68
2022/01/26 07:57:46;;;;;;;15.13;9.80;;;;;;;0.31;46.89;100322.97;5093324;28;20436;-68
2022/01/26 08:00:14;;;;;;;12.00;7.97;;;;;;;0.34;47.05;100323.63;5089426;28;20441;-68
2022/01/26 08:02:40;;;;;;;16.27;9.27;;;;;;;0.33;47.30;100316.72;5094671;28;20466;-67
2022/01/26 08:05:08;;;;;;;9.67;7.93;;;;;;;0.31;47.69;100317.75;5094815;28;20518;-69
2022/01/26 08:07:35;;;;;;;16.90;9.27;;;;;;;0.42;47.48;100321.28;5093331;28;20810;-68
2022/01/26 08:10:02;;;;;;;16.03;9.23;;;;;;;0.53;47.22;100310.84;5088918;28;20441;-68
2022/01/26 08:12:30;;;;;;;8.90;7.90;;;;;;;0.57;47.27;100322.75;5094664;28;20510;-68
2022/01/26 08:14:57;;;;;;;12.07;9.70;;;;;;;0.55;47.34;100314.19;5094384;28;20559;-69
2022/01/26 08:17:23;;;;;;;10.30;9.20;;;;;;;0.50;47.88;100308.50;5094495;28;20490;-67
2022/01/26 08:19:52;;;;;;;13.37;9.33;;;;;;;0.50;48.04;100302.41;5094379;28;20441;-68
2022/01/26 08:22:20;;;;;;;11.70;9.27;;;;;;;0.50;48.33;100308.50;5094374;28;20450;-69
2022/01/26 08:24:47;;;;;;;18.50;11.40;;;;;;;0.59;48.35;100307.81;5095217;28;20437;-69
2022/01/26 08:27:16;;;;;;;15.87;9.70;;;;;;;0.64;48.28;100300.44;5094348;28;20444;-68
2022/01/26 08:29:48;;;;;;;10.10;9.03;;;;;;;0.70;48.29;100300.00;5094665;28;20433;-69
2022/01/26 08:32:14;;;;;;;9.70;8.13;;;;;;;0.67;48.09;100302.84;5094645;28;20425;-68
2022/01/26 08:34:42;;;;;;;12.43;9.37;;;;;;;0.64;48.08;100305.69;5094300;28;20530;-70
2022/01/26 08:37:09;;;;;;;9.70;8.50;;;;;;;0.80;48.14;100303.59;5092873;28;20491;-69
2022/01/26 08:39:37;;;;;;;10.37;8.47;;;;;;;0.76;48.28;100307.38;5094273;28;20442;-69
2022/01/26 08:42:06;;;;;;;17.73;11.17;;;;;;;0.85;48.38;100305.88;5074045;28;20946;-69
2022/01/26 08:44:33;;;;;;;16.17;9.27;;;;;;;0.97;47.88;100308.38;5074513;28;20537;-69
2022/01/26 08:47:01;;;;;;;11.17;9.20;;;;;;;0.99;47.34;100300.41;5073760;28;20933;-68
2022/01/26 08:49:28;;;;;;;9.63;7.90;;;;;;;0.94;47.79;100308.59;5074290;28;20426;-69
2022/01/26 08:51:55;;;;;;;12.60;8.93;;;;;;;0.97;48.04;100302.34;5073940;28;20841;-69
2022/01/26 08:54:22;;;;;;;11.20;8.73;;;;;;;1.04;47.44;100304.34;5073736;28;20475;-69
2022/01/26 08:56:50;;;;;;;10.20;9.10;;;;;;;1.14;47.51;100310.53;5074619;28;20439;-68
2022/01/26 08:59:17;;;;;;;17.53;8.93;;;;;;;0.98;47.89;100310.03;5073313;28;20962;-68
2022/01/26 09:01:43;;;;;;;14.43;9.67;;;;;;;1.06;47.84;100301.63;5073402;28;20449;-67
2022/01/26 09:04:12;;;;;;;9.70;8.37;;;;;;;1.00;48.15;100297.69;5073255;28;20897;-67
2022/01/26 09:06:49;;;;;;;17.67;9.47;;;;;;;0.97;48.36;100297.09;5073296;28;20443;-68
2022/01/26 09:09:16;;;;;;;11.50;9.47;;;;;;;0.97;48.48;100292.69;5082757;28;20442;-67
2022/01/26 09:11:43;;;;;;;16.50;11.00;;;;;;;1.03;48.68;100302.69;5093472;28;20494;-67
2022/01/26 09:14:12;;;;;;;24.13;10.00;;;;;;;1.05;48.41;100302.59;5093768;28;20481;-69
2022/01/26 09:16:39;;;;;;;14.57;8.77;;;;;;;1.10;48.12;100298.66;5093362;28;20938;-67
2022/01/26 09:19:12;;;;;;;16.43;8.93;;;;;;;1.04;48.15;100304.34;5093136;28;20429;-68
2022/01/26 09:21:40;;;;;;;16.57;11.27;;;;;;;1.02;48.26;100295.78;5093763;28;20472;-68
2022/01/26 09:24:07;;;;;;;56.50;14.40;;;;;;;1.11;48.63;100300.34;5094247;28;20441;-68
2022/01/26 09:26:33;;;;;;;16.83;11.00;;;;;;;1.08;48.79;100294.50;5093241;28;20499;-68
2022/01/26 09:29:00;;;;;;;13.30;9.17;;;;;;;1.18;48.34;100293.66;5093124;28;20433;-68
2022/01/26 09:31:27;;;;;;;13.67;8.30;;;;;;;1.30;48.35;100281.44;5092905;28;20472;-68
2022/01/26 09:33:54;;;;;;;15.30;10.33;;;;;;;1.44;48.36;100287.28;5093084;28;20538;-69
2022/01/26 09:36:20;;;;;;;14.03;9.43;;;;;;;1.53;48.23;100285.72;5093277;28;20515;-69
2022/01/26 09:38:48;;;;;;;12.93;10.23;;;;;;;1.64;48.83;100290.94;5092881;28;20474;-69
2022/01/26 09:41:16;;;;;;;12.53;10.23;;;;;;;1.67;48.78;100283.69;5093167;28;20827;-68
2022/01/26 09:43:44;;;;;;;15.33;10.00;;;;;;;1.77;48.91;100284.63;5092887;28;20823;-69
2022/01/26 09:46:12;;;;;;;34.77;9.80;;;;;;;1.79;49.50;100274.03;5092618;28;21016;-71
2022/01/26 09:48:39;;;;;;;12.17;9.50;;;;;;;1.96;49.96;100268.28;5093492;28;20494;-68
2022/01/26 09:51:06;;;;;;;21.53;9.60;;;;;;;1.94;49.78;100281.50;5087588;28;20441;-68
2022/01/26 09:53:35;;;;;;;11.00;8.87;;;;;;;2.05;49.65;100273.63;5092805;28;20514;-68
2022/01/26 09:56:03;;;;;;;14.90;8.83;;;;;;;2.03;49.79;100277.28;5092793;28;20464;-67
2022/01/26 09:58:30;;;;;;;15.70;8.53;;;;;;;2.09;49.88;100272.44;5091411;28;20491;-66
2022/01/26 10:00:58;;;;;;;12.37;8.83;;;;;;;2.11;50.02;100265.25;5092752;28;20433;-66
2022/01/26 10:03:31;;;;;;;16.50;9.77;;;;;;;2.15;49.56;100253.56;5092492;28;20437;-67
2022/01/26 10:05:57;;;;;;;16.67;8.23;;;;;;;2.12;50.41;100251.19;5092271;28;20441;-67
2022/01/26 10:08:53;;;;;;;10.57;8.10;;;;;;;2.18;50.63;100248.09;5092222;28;20523;-67
2022/01/26 10:19:43;;;;;;;17.13;10.13;;;;;;;2.29;50.81;100245.41;5092320;28;20436;-67
2022/01/26 10:22:09;;;;;;;13.73;9.07;;;;;;;2.25;51.18;100236.13;5092049;28;20518;-67
2022/01/26 10:24:36;;;;;;;16.00;9.00;;;;;;;2.35;51.13;100244.94;5092973;28;20445;-67
2022/01/26 10:27:04;;;;;;;44.97;10.50;;;;;;;2.42;50.93;100240.00;5091973;28;20642;-67
2022/01/26 10:29:33;;;;;;;11.27;8.90;;;;;;;2.39;50.94;100233.22;5092632;28;20490;-67
2022/01/26 10:32:11;;;;;;;11.83;8.17;;;;;;;2.33;51.18;100238.97;5082831;28;20445;-73
2022/01/26 10:34:38;;;;;;;9.97;8.57;;;;;;;2.40;51.10;100227.03;5070854;28;20482;-65
2022/01/26 10:37:05;;;;;;;9.00;8.20;;;;;;;2.61;51.15;100224.44;5071071;28;20434;-67
2022/01/26 10:39:37;;;;;;;25.20;10.37;;;;;;;2.63;50.73;100222.50;5089863;28;20506;-67
2022/01/26 10:42:10;;;;;;;17.53;8.57;;;;;;;2.60;51.63;100226.19;5072087;28;20491;-66
2022/01/26 10:44:42;;;;;;;15.97;9.37;;;;;;;2.63;51.25;100223.34;5088342;28;20444;-65
2022/01/26 10:47:10;;;;;;;16.67;8.10;;;;;;;2.68;51.31;100221.16;5091928;28;20550;-66
2022/01/26 10:49:56;;;;;;;9.57;8.43;;;;;;;2.76;51.02;100225.75;5091631;28;20518;-66
2022/01/26 10:52:32;;;;;;;13.53;10.03;;;;;;;2.89;51.59;100226.38;5089215;28;20476;-65
2022/01/26 10:55:00;;;;;;;19.73;9.87;;;;;;;2.76;51.52;100218.72;5088710;28;20475;-65
2022/01/26 10:57:28;;;;;;;12.63;10.67;;;;;;;2.79;51.09;100215.84;5091866;28;20433;-65
2022/01/26 10:59:56;;;;;;;22.93;11.33;;;;;;;2.80;51.77;100212.25;5091784;28;20230;-65
2022/01/26 11:02:26;;;;;;;15.17;9.67;;;;;;;2.88;51.42;100206.34;5087156;28;20502;-66
2022/01/26 11:04:53;;;;;;;11.43;9.27;;;;;;;2.91;51.59;100212.19;5090788;28;20457;-65
2022/01/26 11:07:20;;;;;;;18.37;13.07;;;;;;;2.97;51.20;100206.41;5091697;28;20449;-66
2022/01/26 11:09:48;;;;;;;14.97;12.10;;;;;;;2.86;52.13;100203.84;5090721;28;20871;-67
2022/01/26 11:12:17;;;;;;;12.90;10.23;;;;;;;2.91;51.90;100196.44;5088073;28;20462;-66
2022/01/26 11:14:50;;;;;;;11.17;9.10;;;;;;;2.89;52.35;100197.50;5088249;28;20472;-67
2022/01/26 11:17:27;;;;;;;13.23;10.17;;;;;;;3.04;52.34;100199.69;5091286;28;20425;-66
2022/01/26 11:19:54;;;;;;;18.73;11.83;;;;;;;3.18;51.99;100188.00;5090090;28;20482;-66
2022/01/26 11:22:27;;;;;;;16.90;11.60;;;;;;;3.21;52.23;100188.56;5090799;28;20432;-67
2022/01/26 11:24:54;;;;;;;13.17;10.93;;;;;;;3.44;51.44;100190.00;5091183;28;20199;-67
2022/01/26 11:27:21;;;;;;;18.97;12.33;;;;;;;3.54;51.85;100201.38;5091846;28;20792;-69
2022/01/26 11:29:54;;;;;;;14.57;12.27;;;;;;;3.59;51.00;100199.16;5091148;28;20573;-67
2022/01/26 11:32:28;;;;;;;29.90;11.23;;;;;;;3.80;50.30;100189.38;5091622;28;20417;-66
2022/01/26 11:34:56;;;;;;;13.63;9.80;;;;;;;3.85;50.55;100189.00;5091369;28;20321;-69
2022/01/26 11:37:35;;;;;;;18.90;11.10;;;;;;;3.81;50.18;100183.19;5091715;28;20444;-67
2022/01/26 11:45:35;;;;;;;23.47;11.07;;;;;;;4.00;50.27;100171.88;5091761;28;20281;-68
2022/01/26 11:48:07;;;;;;;18.33;10.53;;;;;;;3.96;50.11;100170.47;5094822;28;20190;-69
2022/01/26 11:50:35;;;;;;;20.47;12.90;;;;;;;3.98;50.35;100169.38;5095177;28;20274;-67
2022/01/26 11:53:04;;;;;;;18.63;11.07;;;;;;;4.13;50.56;100173.22;5094662;28;20248;-67
2022/01/26 11:55:39;;;;;;;17.40;11.77;;;;;;;4.18;51.09;100171.03;5092280;28;20219;-74
2022/01/26 11:58:08;;;;;;;31.63;11.33;;;;;;;4.23;50.87;100163.56;5074173;28;20847;-66
2022/01/26 12:00:46;;;;;;;14.33;10.53;;;;;;;4.48;50.44;100173.50;5079739;28;20506;-66
2022/01/26 12:03:27;;;;;;;18.47;9.83;;;;;;;4.48;50.08;100162.97;5093308;28;20191;-74
2022/01/26 12:05:56;;;;;;;14.47;11.67;;;;;;;4.51;51.33;100159.22;5092737;28;20272;-69
2022/01/26 12:08:37;;;;;;;19.80;12.50;;;;;;;4.55;51.07;100142.19;5091496;28;20183;-66
2022/01/26 12:11:07;;;;;;;20.97;12.17;;;;;;;4.58;51.26;100141.91;5091829;28;20274;-67
2022/01/26 12:13:36;;;;;;;19.10;12.73;;;;;;;4.65;51.64;100145.59;5094168;28;20666;-68
2022/01/26 12:16:10;;;;;;;19.57;10.60;;;;;;;4.43;52.36;100144.16;5094213;28;20215;-67
2022/01/26 12:18:43;;;;;;;21.33;12.00;;;;;;;4.46;52.22;100149.09;5093693;28;20191;-66
2022/01/26 12:35:20;;;;;;;19.93;10.80;;;;;;;4.52;53.09;100143.31;5081688;28;20219;-66
2022/01/26 12:38:00;;;;;;;16.70;11.97;;;;;;;4.52;53.13;100132.78;5093982;28;20187;-68
2022/01/26 12:43:14;;;;;;;29.30;14.33;;;;;;;4.57;53.22;100138.44;5086889;28;20193;-67
2022/01/26 12:45:41;;;;;;;15.67;11.57;;;;;;;4.52;53.35;100137.19;5093247;28;20547;-69
2022/01/26 12:48:10;;;;;;;20.67;11.63;;;;;;;4.63;53.28;100137.03;5093119;28;20245;-69
2022/01/26 12:50:40;;;;;;;16.13;11.57;;;;;;;4.74;52.44;100145.59;5089195;28;20191;-67
2022/01/26 12:53:07;;;;;;;13.00;10.27;;;;;;;4.76;52.40;100134.91;5093546;28;20213;-67
2022/01/26 12:55:36;;;;;;;14.90;10.83;;;;;;;4.82;52.77;100127.28;5087678;28;20307;-70
2022/01/26 12:58:04;;;;;;;15.80;10.97;;;;;;;4.94;52.35;100127.91;5092656;28;20199;-70
2022/01/26 13:00:42;;;;;;;14.70;10.47;;;;;;;4.90;52.62;100137.91;5091928;28;20260;-71
2022/01/26 13:03:19;;;;;;;20.40;9.03;;;;;;;4.76;52.33;100130.50;5092769;28;20249;-70
2022/01/26 13:05:47;;;;;;;14.50;9.63;;;;;;;4.75;52.34;100128.81;5085969;28;20928;-68
2022/01/26 13:08:13;;;;;;;12.40;9.93;;;;;;;4.66;53.11;100139.41;5091640;28;20579;-67
2022/01/26 13:10:41;;;;;;;10.80;9.77;;;;;;;4.70;52.71;100131.06;5092842;28;20256;-72
2022/01/26 13:13:17;;;;;;;12.50;9.63;;;;;;;4.69;52.50;100147.81;5093235;28;20657;-67